OEDF/DMM METAR and TAF weather

Enter ICAO airport designator
Station Type Date Time Source
OEDF METAR 2021/03/08 02:00 UTC NOAA

OEDF 080200Z 28003KT CAVOK 11/03 Q1014 NOSIG


Station Type Date Time Source
OEDF Decoded METAR 2021/03/08 02:00 UTC NOAA

Dammam-King Fahd International Airport, Saudi Arabia (OEDF) 26-28N 049-47E
Mar 07, 2021 - 09:00 PM EST / 2021.03.08 0200 UTC
Wind: from the W (280 degrees) at 3 MPH (3 KT):0
Visibility: greater than 7 mile(s):0
Temperature: 51 F (11 C)
Dew Point: 37 F (3 C)
Relative Humidity: 57%
Pressure (altimeter): 29.94 in. Hg (1014 hPa)
ob: OEDF 080200Z 28003KT CAVOK 11/03 Q1014 NOSIG
cycle: 2

Station Type Date Time Source
OEDF TAF 2021/03/07 18:33 UTC NOAA

TAF TAF OEDF 071400Z 0718/0824 VRB04KT CAVOK
BECMG 0808/0810 09012KT
BECMG 0818/0820 13008KT

Example: see airport list